Time;durP1;ratioP1;P1;durP2;ratioP2;P2;SDS_P1;SDS_P2;PMS_P1;PMS_P2;Temp;Humidity;BMP_temperature;BMP_pressure;BME280_temperature;BME280_humidity;BME280_pressure;Samples;Min_cycle;Max_cycle;Signal;HPM_P1;HPM_P2
2023/01/25 00:00:51;;;;;;;20.33;10.40;;;;;;;3.09;100.00;102304.97;5056295;28;20237;-75
2023/01/25 00:03:18;;;;;;;13.48;9.43;;;;;;;3.14;100.00;102305.94;5061344;28;20223;-76
2023/01/25 00:05:44;;;;;;;15.20;9.93;;;;;;;3.12;100.00;102299.69;5061336;28;20298;-76
2023/01/25 00:08:12;;;;;;;14.25;11.05;;;;;;;3.11;100.00;102290.81;5040287;28;20674;-75
2023/01/25 00:10:39;;;;;;;15.13;10.98;;;;;;;3.11;100.00;102300.59;5044847;28;20603;-76
2023/01/25 00:13:05;;;;;;;14.32;10.68;;;;;;;3.15;100.00;102298.88;5047975;28;20204;-75
2023/01/25 00:15:32;;;;;;;14.68;10.95;;;;;;;3.16;100.00;102287.34;5036217;28;20215;-75
2023/01/25 00:18:00;;;;;;;16.17;11.18;;;;;;;3.13;100.00;102285.53;5040204;28;20207;-76
2023/01/25 00:20:26;;;;;;;14.45;10.80;;;;;;;3.11;100.00;102285.50;5055680;28;20620;-76
2023/01/25 00:22:53;;;;;;;13.95;9.05;;;;;;;3.12;100.00;102284.63;5039855;28;20307;-76
2023/01/25 00:25:21;;;;;;;14.45;10.20;;;;;;;3.06;100.00;102281.88;5053779;28;20199;-76
2023/01/25 00:27:47;;;;;;;14.65;10.23;;;;;;;3.03;100.00;102287.16;5039504;28;20266;-76
2023/01/25 00:30:14;;;;;;;13.05;10.65;;;;;;;3.01;100.00;102286.25;5036327;28;20289;-73
2023/01/25 00:36:39;;;;;;;17.13;11.75;;;;;;;3.01;100.00;102277.31;5038674;28;20202;-75
2023/01/25 00:39:13;;;;;;;15.15;10.65;;;;;;;3.03;100.00;102276.50;5041927;28;20685;-75
2023/01/25 00:41:41;;;;;;;14.57;9.75;;;;;;;3.10;100.00;102278.41;5037271;28;20816;-74
2023/01/25 00:44:07;;;;;;;15.27;10.90;;;;;;;3.07;100.00;102270.34;5037601;28;20219;-73
2023/01/25 00:46:34;;;;;;;16.77;11.10;;;;;;;3.12;100.00;102270.41;5044927;28;20564;-75
2023/01/25 00:49:01;;;;;;;16.02;11.27;;;;;;;3.13;100.00;102269.56;5057516;28;20291;-73
2023/01/25 00:51:28;;;;;;;15.20;10.63;;;;;;;3.10;100.00;102273.06;5041861;28;20227;-73
2023/01/25 00:53:54;;;;;;;19.10;11.05;;;;;;;3.10;100.00;102273.06;5053228;28;20219;-75
2023/01/25 00:56:21;;;;;;;15.00;10.73;;;;;;;3.11;100.00;102264.19;5038531;28;20207;-73
2023/01/25 00:58:49;;;;;;;14.15;10.30;;;;;;;3.03;100.00;102270.25;5037812;28;20231;-74
2023/01/25 01:01:15;;;;;;;14.27;9.73;;;;;;;3.04;100.00;102272.97;5046820;28;20587;-75
2023/01/25 01:03:42;;;;;;;16.08;11.02;;;;;;;3.02;100.00;102263.16;5040193;28;20292;-75
2023/01/25 01:09:32;;;;;;;18.42;11.32;;;;;;;3.03;100.00;102273.84;5062090;28;20253;-75
2023/01/25 01:18:45;;;;;;;14.40;10.15;;;;;;;3.01;100.00;102274.66;5031553;28;20552;-75
2023/01/25 01:21:13;;;;;;;16.13;10.82;;;;;;;2.97;100.00;102276.41;5050610;28;20223;-74
2023/01/25 01:23:40;;;;;;;15.10;10.00;;;;;;;2.98;100.00;102277.28;5042452;28;20263;-74
2023/01/25 01:26:09;;;;;;;16.05;10.93;;;;;;;2.96;100.00;102273.72;5043095;28;20625;-73
2023/01/25 01:28:38;;;;;;;17.55;12.20;;;;;;;2.93;100.00;102269.25;5057275;28;20210;-73
2023/01/25 01:31:06;;;;;;;17.98;12.02;;;;;;;2.94;100.00;102271.03;5053680;28;20247;-75
2023/01/25 01:33:33;;;;;;;19.00;12.75;;;;;;;2.99;100.00;102263.13;5037352;28;20234;-74
2023/01/25 01:36:07;;;;;;;17.77;12.85;;;;;;;2.97;100.00;102262.22;5050614;28;20200;-75
2023/01/25 01:38:33;;;;;;;16.48;11.38;;;;;;;2.97;100.00;102262.22;5051349;28;20185;-73
2023/01/25 01:41:00;;;;;;;17.77;11.77;;;;;;;2.93;100.00;102263.91;5038134;28;20268;-73
2023/01/25 01:43:26;;;;;;;16.83;11.18;;;;;;;2.99;100.00;102257.81;5057155;28;20704;-73
2023/01/25 01:45:57;;;;;;;15.40;10.68;;;;;;;2.96;100.00;102263.06;5056089;28;20221;-73
2023/01/25 01:48:33;;;;;;;17.02;11.10;;;;;;;3.04;100.00;102264.97;5040759;28;20203;-72
2023/01/25 01:51:05;;;;;;;16.27;12.32;;;;;;;3.04;100.00;102257.00;5037383;28;20254;-73
2023/01/25 01:53:33;;;;;;;16.98;12.15;;;;;;;3.01;100.00;102256.03;5037998;28;20555;-73
2023/01/25 01:56:04;;;;;;;16.65;12.30;;;;;;;2.95;100.00;102259.50;5054659;28;20200;-75
2023/01/25 01:58:32;;;;;;;16.40;11.52;;;;;;;2.95;100.00;102248.88;5056057;28;20197;-73
2023/01/25 02:00:58;;;;;;;18.00;12.23;;;;;;;2.93;100.00;102245.28;5046533;28;20318;-73
2023/01/25 02:03:26;;;;;;;16.20;11.73;;;;;;;2.93;100.00;102246.16;5046630;28;20223;-74
2023/01/25 02:05:58;;;;;;;16.08;11.35;;;;;;;2.98;100.00;102238.25;5036971;28;20294;-76
2023/01/25 02:08:27;;;;;;;15.85;12.15;;;;;;;2.92;100.00;102244.41;5040235;28;20213;-73
2023/01/25 02:10:54;;;;;;;18.15;12.20;;;;;;;2.97;100.00;102247.13;5044668;28;20229;-74
2023/01/25 02:13:21;;;;;;;16.90;12.60;;;;;;;2.98;100.00;102238.25;5058343;28;20573;-74
2023/01/25 02:15:51;;;;;;;19.17;12.60;;;;;;;2.90;100.00;102237.25;5053437;28;20219;-75
2023/01/25 02:18:19;;;;;;;17.88;11.95;;;;;;;2.86;100.00;102241.63;5036054;28;20196;-74
2023/01/25 02:20:48;;;;;;;17.70;11.32;;;;;;;2.91;100.00;102244.34;5047331;28;20219;-72
2023/01/25 02:23:24;;;;;;;20.55;12.65;;;;;;;3.01;100.00;102235.66;5051176;28;20216;-75
2023/01/25 02:25:52;;;;;;;17.92;12.18;;;;;;;2.99;100.00;102241.84;5042786;28;20217;-74
2023/01/25 02:28:22;;;;;;;15.95;11.43;;;;;;;2.96;100.00;102239.09;5062999;28;20203;-75
2023/01/25 02:30:49;;;;;;;15.40;10.70;;;;;;;3.01;100.00;102242.72;5051289;28;20219;-74
2023/01/25 02:33:16;;;;;;;16.77;12.05;;;;;;;3.00;100.00;102238.28;5056976;28;20195;-73
2023/01/25 02:35:45;;;;;;;18.48;12.73;;;;;;;3.01;100.00;102232.06;5057918;28;20649;-74
2023/01/25 02:38:15;;;;;;;18.33;12.20;;;;;;;3.00;100.00;102230.31;5056321;28;20213;-76
2023/01/25 02:40:46;;;;;;;15.95;11.95;;;;;;;2.97;100.00;102239.13;5056814;28;20334;-76
2023/01/25 02:43:14;;;;;;;15.98;11.27;;;;;;;3.00;100.00;102233.84;5060998;28;20222;-75
2023/01/25 02:45:41;;;;;;;16.67;11.70;;;;;;;2.97;100.00;102243.56;5055749;28;20285;-74
2023/01/25 02:48:07;;;;;;;19.77;11.82;;;;;;;2.98;100.00;102242.69;5037847;28;20635;-75
2023/01/25 02:50:34;;;;;;;17.23;12.20;;;;;;;3.02;100.00;102244.53;5037255;28;20224;-75
2023/01/25 02:53:00;;;;;;;16.25;11.40;;;;;;;3.02;100.00;102241.88;5048574;28;20198;-76
2023/01/25 02:55:27;;;;;;;18.58;12.77;;;;;;;3.01;100.00;102230.34;5036363;28;20284;-74
2023/01/25 02:57:54;;;;;;;17.20;11.73;;;;;;;3.05;100.00;102229.50;5053020;28;20210;-75
2023/01/25 03:00:22;;;;;;;17.40;11.20;;;;;;;2.92;100.00;102233.75;5059524;28;20223;-74
2023/01/25 03:02:48;;;;;;;19.10;12.13;;;;;;;2.95;100.00;102234.66;5058309;28;20208;-74
2023/01/25 03:05:15;;;;;;;18.45;12.00;;;;;;;2.91;100.00;102223.06;5045732;28;20222;-74
2023/01/25 03:07:42;;;;;;;16.65;11.25;;;;;;;2.98;100.00;102229.38;5046427;28;20201;-74
2023/01/25 03:10:10;;;;;;;17.08;11.68;;;;;;;2.91;100.00;102217.75;5056291;28;20263;-73
2023/01/25 03:12:37;;;;;;;17.00;12.27;;;;;;;2.84;100.00;102222.06;5062641;28;20243;-75
2023/01/25 03:15:04;;;;;;;18.60;12.88;;;;;;;2.85;100.00;102217.63;5063779;28;20209;-74
2023/01/25 03:17:32;;;;;;;16.25;11.23;;;;;;;2.78;100.00;102216.69;5044971;28;20287;-73
2023/01/25 03:19:59;;;;;;;17.42;11.85;;;;;;;2.81;100.00;102221.16;5052955;28;20246;-72
2023/01/25 03:22:25;;;;;;;19.60;12.70;;;;;;;2.88;100.00;102217.72;5074427;28;20237;-74
2023/01/25 03:24:52;;;;;;;17.50;12.70;;;;;;;2.87;100.00;102213.25;5066996;28;20280;-73
2023/01/25 03:27:18;;;;;;;16.00;11.75;;;;;;;2.87;100.00;102211.50;5048225;28;20227;-74
2023/01/25 03:29:46;;;;;;;18.65;12.15;;;;;;;2.91;100.00;102207.97;5051129;28;20229;-73
2023/01/25 03:32:12;;;;;;;16.83;11.80;;;;;;;2.93;100.00;102202.69;5036215;28;20300;-74
2023/01/25 03:34:40;;;;;;;16.85;12.30;;;;;;;2.83;100.00;102209.66;5042190;28;20286;-75
2023/01/25 03:37:07;;;;;;;15.90;11.90;;;;;;;2.78;100.00;102205.13;5035673;28;20212;-74
2023/01/25 03:39:33;;;;;;;17.65;11.85;;;;;;;2.79;100.00;102196.28;5045983;28;20565;-74
2023/01/25 03:42:00;;;;;;;19.73;13.75;;;;;;;2.80;100.00;102201.59;5053842;28;20196;-73
2023/01/25 03:44:27;;;;;;;15.38;11.48;;;;;;;2.80;100.00;102195.38;5053032;28;20261;-73
2023/01/25 03:46:54;;;;;;;18.88;12.40;;;;;;;2.83;100.00;102196.34;5054359;28;20208;-74
2023/01/25 03:49:20;;;;;;;15.48;11.25;;;;;;;2.85;100.00;102194.59;5048643;28;20231;-75
2023/01/25 03:51:48;;;;;;;17.98;11.95;;;;;;;2.78;100.00;102191.81;5044614;28;20195;-74
2023/01/25 03:54:15;;;;;;;18.00;11.57;;;;;;;2.90;100.00;102194.69;5053271;28;20505;-75
2023/01/25 03:56:41;;;;;;;17.00;11.18;;;;;;;2.86;100.00;102198.16;5043299;28;20219;-74
2023/01/25 03:59:08;;;;;;;18.52;13.05;;;;;;;2.89;100.00;102190.19;5046785;28;20206;-74
2023/01/25 04:01:34;;;;;;;16.17;11.05;;;;;;;2.87;100.00;102194.59;5036273;28;20226;-75
2023/01/25 04:04:01;;;;;;;18.70;12.63;;;;;;;2.88;100.00;102193.75;5044902;28;20218;-75
2023/01/25 04:06:28;;;;;;;17.88;12.50;;;;;;;2.88;100.00;102191.09;5034841;28;20199;-74
2023/01/25 04:08:56;;;;;;;16.33;12.02;;;;;;;2.93;100.00;102194.72;5042237;28;20202;-73
2023/01/25 04:11:22;;;;;;;16.10;11.00;;;;;;;2.83;100.00;102188.38;5044592;28;20270;-73
2023/01/25 04:13:49;;;;;;;16.15;10.20;;;;;;;2.83;100.00;102191.03;5033550;28;20205;-74
2023/01/25 04:16:15;;;;;;;16.20;11.00;;;;;;;2.75;100.00;102183.78;5040566;28;20205;-73
2023/01/25 04:18:42;;;;;;;17.10;11.00;;;;;;;2.74;100.00;102189.97;5057912;28;20204;-71
2023/01/25 04:21:08;;;;;;;14.45;9.63;;;;;;;2.78;100.00;102191.81;5052923;28;20255;-75
2023/01/25 04:23:35;;;;;;;15.40;10.65;;;;;;;2.74;100.00;102190.88;5036173;28;20205;-74
2023/01/25 04:26:07;;;;;;;15.65;10.50;;;;;;;2.73;100.00;102186.41;5038507;28;20396;-75
2023/01/25 04:28:35;;;;;;;14.68;10.32;;;;;;;2.68;100.00;102182.81;5055056;28;20202;-75
2023/01/25 04:31:02;;;;;;;16.63;9.77;;;;;;;2.72;100.00;102174.88;5053107;28;20230;-74
2023/01/25 04:33:29;;;;;;;17.08;11.57;;;;;;;2.69;100.00;102180.16;5036110;28;20207;-74
2023/01/25 04:35:56;;;;;;;17.55;11.02;;;;;;;2.70;100.00;102176.63;5042015;28;20269;-74
2023/01/25 04:38:22;;;;;;;16.98;11.10;;;;;;;2.64;100.00;102175.63;5019008;28;20208;-74
2023/01/25 04:40:50;;;;;;;14.18;10.25;;;;;;;2.64;100.00;102171.19;5018976;28;20219;-76
2023/01/25 04:43:19;;;;;;;17.67;11.48;;;;;;;2.61;100.00;102171.16;5042790;28;20207;-72
2023/01/25 04:45:46;;;;;;;15.43;11.25;;;;;;;2.63;100.00;102174.75;5053164;28;20250;-75
2023/01/25 04:48:14;;;;;;;16.40;11.32;;;;;;;2.58;100.00;102165.81;5033283;28;20291;-73
2023/01/25 04:50:42;;;;;;;16.55;11.20;;;;;;;2.53;100.00;102164.81;5034422;28;20231;-74
2023/01/25 04:53:10;;;;;;;18.73;12.30;;;;;;;2.57;100.00;102160.44;5034662;28;20211;-73
2023/01/25 04:55:36;;;;;;;17.52;11.63;;;;;;;2.59;100.00;102156.94;5042075;28;20200;-76
2023/01/25 04:58:03;;;;;;;18.42;12.85;;;;;;;2.61;100.00;102159.63;5044270;28;20277;-73
2023/01/25 05:00:32;;;;;;;19.85;11.75;;;;;;;2.54;100.00;102157.75;5056020;28;20220;-72
2023/01/25 05:02:59;;;;;;;17.88;12.70;;;;;;;2.59;100.00;102150.72;5069527;28;20195;-70
2023/01/25 05:05:25;;;;;;;18.75;12.57;;;;;;;2.63;100.00;102148.16;5056658;28;20223;-72
2023/01/25 05:07:52;;;;;;;19.15;11.20;;;;;;;2.69;100.00;102147.31;5056331;28;20172;-73
2023/01/25 05:10:19;;;;;;;22.70;14.73;;;;;;;2.70;100.00;102134.06;5056441;28;20211;-72
2023/01/25 05:12:45;;;;;;;22.15;13.40;;;;;;;2.71;100.00;102142.91;5054988;28;20263;-73
2023/01/25 05:15:12;;;;;;;21.02;12.18;;;;;;;2.68;100.00;102138.47;5041618;28;20205;-75
2023/01/25 05:17:40;;;;;;;17.90;11.90;;;;;;;2.64;100.00;102133.94;5036030;28;20211;-74
2023/01/25 05:20:07;;;;;;;15.63;10.35;;;;;;;2.62;100.00;102132.16;5035482;28;20299;-73
2023/01/25 05:22:34;;;;;;;18.25;10.80;;;;;;;2.63;100.00;102140.16;5035923;28;20270;-73
2023/01/25 05:25:01;;;;;;;15.98;10.63;;;;;;;2.61;100.00;102130.38;5036239;28;20255;-75
2023/01/25 05:27:27;;;;;;;18.02;11.15;;;;;;;2.65;100.00;102138.41;5037596;28;20204;-73
2023/01/25 05:29:54;;;;;;;22.10;13.70;;;;;;;2.67;100.00;102138.47;5037774;28;20720;-74
2023/01/25 05:32:23;;;;;;;18.02;11.30;;;;;;;2.61;100.00;102136.59;5038032;28;20246;-75
2023/01/25 05:34:51;;;;;;;19.48;11.90;;;;;;;2.62;100.00;102126.81;5037803;28;20207;-73
2023/01/25 05:37:20;;;;;;;16.40;11.45;;;;;;;2.64;100.00;102119.75;5038035;28;20206;-75
2023/01/25 05:39:47;;;;;;;16.52;10.88;;;;;;;2.59;100.00;102121.47;5036639;28;20311;-74
2023/01/25 05:42:16;;;;;;;19.27;12.45;;;;;;;2.61;100.00;102125.06;5037989;28;20273;-74
2023/01/25 05:44:42;;;;;;;20.65;12.95;;;;;;;2.68;100.00;102118.94;5056004;28;20220;-73
2023/01/25 05:47:13;;;;;;;18.52;12.80;;;;;;;2.57;100.00;102125.88;5052545;28;20197;-75
2023/01/25 05:49:39;;;;;;;18.95;13.18;;;;;;;2.56;100.00;102114.34;5041632;28;20311;-74
2023/01/25 05:52:07;;;;;;;18.38;12.23;;;;;;;2.58;100.00;102117.94;5040835;28;20207;-72
2023/01/25 05:54:34;;;;;;;20.60;13.30;;;;;;;2.40;100.00;102117.66;5037896;28;20670;-74
2023/01/25 05:57:01;;;;;;;20.50;13.63;;;;;;;2.47;100.00;102122.19;5038437;28;20660;-75
2023/01/25 05:59:28;;;;;;;20.30;12.50;;;;;;;2.41;100.00;102116.75;5037837;28;20209;-73
2023/01/25 06:01:54;;;;;;;18.02;12.50;;;;;;;2.41;100.00;102116.75;5041435;28;20401;-77
2023/01/25 06:04:21;;;;;;;19.98;12.13;;;;;;;2.35;100.00;102122.88;5039493;28;20289;-75
2023/01/25 06:06:47;;;;;;;16.70;11.75;;;;;;;2.34;100.00;102117.53;5038702;28;20274;-74
2023/01/25 06:09:16;;;;;;;19.73;12.30;;;;;;;2.33;100.00;102115.72;5036071;28;20294;-73
2023/01/25 06:11:44;;;;;;;17.52;11.68;;;;;;;2.30;100.00;102117.47;5037156;28;20213;-75
2023/01/25 06:14:10;;;;;;;18.23;12.70;;;;;;;2.34;100.00;102117.53;5036782;28;20213;-73
2023/01/25 06:16:37;;;;;;;17.33;12.30;;;;;;;2.26;100.00;102117.41;5037244;28;20207;-73
2023/01/25 06:19:05;;;;;;;21.58;13.25;;;;;;;2.33;100.00;102121.06;5036636;28;20200;-73
2023/01/25 06:21:32;;;;;;;18.83;12.18;;;;;;;2.37;100.00;102120.25;5036959;28;20224;-75
2023/01/25 06:23:58;;;;;;;16.88;11.93;;;;;;;2.39;100.00;102123.81;5037678;28;20223;-74
2023/01/25 06:26:26;;;;;;;18.73;12.25;;;;;;;2.26;100.00;102118.31;5039670;28;20237;-73
2023/01/25 06:28:53;;;;;;;20.02;11.98;;;;;;;2.23;100.00;102115.59;5040895;28;20282;-73
2023/01/25 06:31:19;;;;;;;17.77;11.65;;;;;;;2.15;100.00;102111.94;5040192;28;20239;-74
2023/01/25 06:33:48;;;;;;;20.40;12.80;;;;;;;2.18;100.00;102108.41;5040452;28;20200;-73
2023/01/25 06:36:17;;;;;;;17.75;12.18;;;;;;;2.16;100.00;102107.50;5041063;28;20634;-73
2023/01/25 06:38:43;;;;;;;17.80;12.02;;;;;;;2.23;100.00;102112.94;5039486;28;20284;-74
2023/01/25 06:41:11;;;;;;;18.55;11.80;;;;;;;2.15;100.00;102117.25;5043580;28;20224;-73
2023/01/25 06:43:39;;;;;;;19.35;12.65;;;;;;;2.11;100.00;102117.16;5042790;28;20204;-73
2023/01/25 06:46:08;;;;;;;22.25;14.27;;;;;;;2.20;100.00;102120.88;5045373;28;20664;-73
2023/01/25 06:48:35;;;;;;;18.77;13.15;;;;;;;2.15;100.00;102122.56;5042375;28;20199;-73
2023/01/25 06:51:05;;;;;;;18.40;12.25;;;;;;;2.15;100.00;102125.22;5043090;28;20343;-74
2023/01/25 06:53:33;;;;;;;23.92;14.32;;;;;;;2.19;100.00;102119.06;5042018;28;20210;-75
2023/01/25 06:56:01;;;;;;;22.60;13.82;;;;;;;2.22;100.00;102115.59;5039817;28;20766;-72
2023/01/25 06:58:29;;;;;;;20.38;13.15;;;;;;;2.27;100.00;102117.44;5039003;28;20203;-72
2023/01/25 07:01:00;;;;;;;21.13;13.70;;;;;;;2.12;100.00;102114.53;5043191;28;20230;-75
2023/01/25 07:03:27;;;;;;;20.25;13.27;;;;;;;2.20;100.00;102117.31;5042692;28;20207;-76
2023/01/25 07:05:57;;;;;;;18.00;12.75;;;;;;;2.29;100.00;102115.69;5040335;28;20223;-73
2023/01/25 07:08:24;;;;;;;23.15;13.40;;;;;;;2.30;100.00;102106.84;5039904;28;20223;-74
2023/01/25 07:10:54;;;;;;;21.45;13.23;;;;;;;2.27;100.00;102112.13;5040371;28;20224;-75
2023/01/25 07:13:21;;;;;;;20.50;13.98;;;;;;;2.26;100.00;102110.34;5039259;28;20249;-74
2023/01/25 07:15:52;;;;;;;22.20;14.55;;;;;;;2.30;100.00;102113.94;5036952;28;20200;-74
2023/01/25 07:18:20;;;;;;;20.30;12.75;;;;;;;2.27;100.00;102114.78;5040205;28;20188;-76
2023/01/25 07:20:47;;;;;;;18.83;12.68;;;;;;;2.19;100.00;102113.75;5042684;28;20315;-73
2023/01/25 07:23:13;;;;;;;23.27;13.15;;;;;;;2.21;100.00;102112.00;5023056;28;20207;-74
2023/01/25 07:25:43;;;;;;;21.83;14.57;;;;;;;2.26;100.00;102114.75;5040906;28;20224;-73
2023/01/25 07:28:10;;;;;;;20.75;14.23;;;;;;;2.26;100.00;102118.31;5040662;28;20214;-73
2023/01/25 07:30:36;;;;;;;21.98;14.07;;;;;;;2.28;100.00;102107.69;5041406;28;20320;-74
2023/01/25 07:33:03;;;;;;;19.08;14.45;;;;;;;2.30;100.00;102112.16;5041090;28;20199;-75
2023/01/25 07:35:32;;;;;;;23.40;15.27;;;;;;;2.27;100.00;102116.53;5039560;28;20250;-73
2023/01/25 07:37:59;;;;;;;22.25;14.70;;;;;;;2.29;100.00;102115.69;5022366;28;20206;-74
2023/01/25 07:40:25;;;;;;;20.85;13.50;;;;;;;2.33;100.00;102113.06;5041812;28;20227;-74
2023/01/25 07:42:52;;;;;;;23.90;15.20;;;;;;;2.33;100.00;102116.66;5041070;28;20228;-72
2023/01/25 07:45:20;;;;;;;23.60;15.45;;;;;;;2.34;100.00;102106.91;5040821;28;20238;-74
2023/01/25 07:47:47;;;;;;;21.15;13.07;;;;;;;2.33;100.00;102108.69;5043334;28;20233;-73
2023/01/25 07:50:13;;;;;;;19.17;12.90;;;;;;;2.20;100.00;102109.34;5041883;28;20238;-74
2023/01/25 07:52:41;;;;;;;19.42;13.57;;;;;;;2.23;100.00;102107.63;5042522;28;20753;-75
2023/01/25 07:55:09;;;;;;;20.92;14.95;;;;;;;2.33;100.00;102111.34;5042615;28;20254;-74
2023/01/25 07:57:35;;;;;;;22.92;14.27;;;;;;;2.25;100.00;102103.22;5042149;28;20211;-73
2023/01/25 08:00:02;;;;;;;20.83;14.27;;;;;;;2.23;100.00;102107.63;5044118;28;20287;-75
2023/01/25 08:02:29;;;;;;;22.08;15.07;;;;;;;2.21;100.00;102113.78;5045431;28;20208;-74
2023/01/25 08:04:55;;;;;;;24.48;15.90;;;;;;;2.22;100.00;102105.84;5042856;28;20219;-75
2023/01/25 08:07:23;;;;;;;22.90;13.82;;;;;;;2.16;100.00;102110.16;5040930;28;20213;-74
2023/01/25 08:09:51;;;;;;;19.85;13.90;;;;;;;2.28;100.00;102107.69;5044008;28;20247;-74
2023/01/25 08:12:17;;;;;;;23.13;13.32;;;;;;;2.12;100.00;102108.31;5041189;28;20213;-73
2023/01/25 08:14:44;;;;;;;25.73;14.27;;;;;;;2.14;100.00;102110.13;5043503;28;20306;-74
2023/01/25 08:17:11;;;;;;;22.67;14.27;;;;;;;2.23;100.00;102104.06;5039038;28;20275;-74
2023/01/25 08:19:37;;;;;;;22.40;14.23;;;;;;;2.24;100.00;102108.53;5039545;28;20226;-73
2023/01/25 08:22:06;;;;;;;22.10;14.75;;;;;;;2.32;100.00;102111.31;5041430;28;20206;-72
2023/01/25 08:24:33;;;;;;;19.92;12.95;;;;;;;2.21;100.00;102116.44;5042450;28;20287;-73
2023/01/25 08:27:01;;;;;;;21.20;13.30;;;;;;;2.26;100.00;102114.75;5043428;28;20232;-73
2023/01/25 08:29:28;;;;;;;22.60;15.18;;;;;;;2.28;100.00;102118.31;5041577;28;20203;-72
2023/01/25 08:31:54;;;;;;;19.67;12.30;;;;;;;2.30;100.00;102112.16;5042290;28;20307;-74
2023/01/25 08:34:21;;;;;;;19.67;13.75;;;;;;;2.27;100.00;102100.59;5021324;28;20207;-75
2023/01/25 08:36:48;;;;;;;23.85;13.45;;;;;;;2.30;100.00;102108.59;5038204;28;20287;-73
2023/01/25 08:39:16;;;;;;;19.02;13.05;;;;;;;2.27;100.00;102111.22;5036600;28;20195;-75
2023/01/25 08:41:44;;;;;;;18.77;13.60;;;;;;;2.34;100.00;102098.94;5036651;28;20207;-75
2023/01/25 08:44:12;;;;;;;21.33;13.60;;;;;;;2.36;100.00;102102.50;5036094;28;20622;-75
2023/01/25 08:46:39;;;;;;;19.83;13.20;;;;;;;2.43;100.00;102107.03;5034761;28;20231;-73
2023/01/25 08:49:06;;;;;;;20.95;15.18;;;;;;;2.40;100.00;102091.94;5035094;28;20691;-74
2023/01/25 08:51:33;;;;;;;20.83;14.10;;;;;;;2.41;100.00;102096.38;5035551;28;20219;-74
2023/01/25 08:54:03;;;;;;;22.95;16.27;;;;;;;2.43;100.00;102096.41;5035748;28;20203;-73
2023/01/25 08:56:30;;;;;;;21.42;15.65;;;;;;;2.51;100.00;102081.47;5035550;28;20207;-74
2023/01/25 08:58:56;;;;;;;22.08;15.40;;;;;;;2.50;100.00;102082.31;5034925;28;20211;-74
2023/01/25 09:01:24;;;;;;;20.08;13.77;;;;;;;2.50;100.00;102083.22;5038141;28;20295;-75
2023/01/25 09:03:51;;;;;;;19.80;13.57;;;;;;;2.63;100.00;102086.06;5039096;28;20673;-73
2023/01/25 09:06:19;;;;;;;26.63;16.08;;;;;;;2.56;100.00;102082.44;5021489;28;20219;-73
2023/01/25 09:08:46;;;;;;;21.73;14.23;;;;;;;2.59;100.00;102082.47;5040442;28;20296;-76
2023/01/25 09:11:15;;;;;;;22.50;14.27;;;;;;;2.63;100.00;102078.09;5024039;28;20240;-73
2023/01/25 09:13:43;;;;;;;23.98;15.88;;;;;;;2.59;100.00;102077.13;5039651;28;20319;-74
2023/01/25 09:16:12;;;;;;;22.85;15.68;;;;;;;2.61;100.00;102086.03;5039352;28;20204;-74
2023/01/25 09:18:42;;;;;;;24.65;15.55;;;;;;;2.63;100.00;102081.63;5041082;28;20208;-73
2023/01/25 09:21:10;;;;;;;27.20;16.92;;;;;;;2.63;100.00;102078.09;5043892;28;20232;-73
2023/01/25 09:23:37;;;;;;;30.70;18.70;;;;;;;2.66;100.00;102076.34;5042947;28;20286;-75
2023/01/25 09:26:04;;;;;;;24.77;16.10;;;;;;;2.56;100.00;102074.44;5043549;28;20232;-75
2023/01/25 09:28:32;;;;;;;25.48;16.13;;;;;;;2.59;100.00;102077.13;5042910;28;20208;-74
2023/01/25 09:31:00;;;;;;;22.58;14.73;;;;;;;2.63;100.00;102068.34;5042246;28;20236;-74
2023/01/25 09:33:29;;;;;;;22.85;14.40;;;;;;;2.62;100.00;102074.53;5043954;28;20211;-73
2023/01/25 09:35:57;;;;;;;21.38;13.68;;;;;;;2.55;100.00;102059.34;5042815;28;20239;-73
2023/01/25 09:38:24;;;;;;;24.42;15.23;;;;;;;2.64;100.00;102069.22;5043625;28;20263;-73
2023/01/25 09:41:04;;;;;;;24.52;14.63;;;;;;;2.67;100.00;102070.16;5043321;28;20217;-73
2023/01/25 09:43:44;;;;;;;25.83;16.02;;;;;;;2.64;100.00;102064.78;5024400;28;20211;-73
2023/01/25 09:46:21;;;;;;;23.15;14.27;;;;;;;2.66;100.00;102065.69;5041888;28;20208;-74
2023/01/25 09:48:59;;;;;;;22.90;15.65;;;;;;;2.64;100.00;102067.44;5042650;28;20211;-74
2023/01/25 09:51:34;;;;;;;25.10;15.60;;;;;;;2.63;100.00;102067.44;5043832;28;20224;-75
2023/01/25 09:54:02;;;;;;;21.75;13.73;;;;;;;2.66;100.00;102067.47;5048676;28;20199;-72
2023/01/25 09:56:33;;;;;;;20.80;14.20;;;;;;;2.79;100.00;102063.22;5055066;28;20693;-74
2023/01/25 09:59:04;;;;;;;20.98;14.57;;;;;;;2.73;100.00;102069.34;5051506;28;20185;-72
2023/01/25 10:01:41;;;;;;;20.15;13.73;;;;;;;2.68;100.00;102068.41;5052998;28;20719;-73
2023/01/25 10:04:16;;;;;;;20.65;14.70;;;;;;;2.74;100.00;102055.19;5051989;28;20211;-73
2023/01/25 10:06:46;;;;;;;24.05;15.30;;;;;;;2.75;100.00;102061.38;5051951;28;20219;-73
2023/01/25 10:09:27;;;;;;;24.40;15.55;;;;;;;2.81;100.00;102058.81;5048786;28;20210;-74
2023/01/25 10:11:54;;;;;;;23.88;15.82;;;;;;;2.78;100.00;102059.69;5046327;28;20185;-74
2023/01/25 10:14:21;;;;;;;24.85;15.07;;;;;;;2.79;100.00;102052.59;5046579;28;20768;-73
2023/01/25 10:16:58;;;;;;;25.70;16.00;;;;;;;2.87;100.00;102040.25;5046620;28;20226;-73
2023/01/25 10:19:37;;;;;;;50.40;24.00;;;;;;;2.80;100.00;102055.25;5044919;28;20180;-72
2023/01/25 10:22:12;;;;;;;26.95;16.60;;;;;;;2.68;100.00;102042.69;5045351;28;20230;-74
2023/01/25 10:24:59;;;;;;;22.23;15.48;;;;;;;2.67;100.00;102042.69;5042355;28;20642;-73
2023/01/25 10:27:32;;;;;;;28.75;16.27;;;;;;;2.68;100.00;102041.78;5039669;28;20677;-73
2023/01/25 10:30:07;;;;;;;23.27;15.32;;;;;;;2.78;100.00;102032.16;5039483;28;20226;-74
2023/01/25 10:32:34;;;;;;;30.85;19.17;;;;;;;2.85;100.00;102024.28;5041874;28;20217;-74
2023/01/25 10:35:14;;;;;;;30.33;17.98;;;;;;;2.82;100.00;102023.34;5038333;28;20294;-76
2023/01/25 10:37:43;;;;;;;27.00;16.92;;;;;;;2.89;100.00;102025.19;5040313;28;20647;-74
2023/01/25 10:40:17;;;;;;;25.80;16.00;;;;;;;2.79;100.00;102015.31;5039340;28;20730;-73
2023/01/25 10:42:48;;;;;;;22.77;14.32;;;;;;;2.68;100.00;102009.88;5041418;28;20204;-76
2023/01/25 10:45:16;;;;;;;26.85;16.08;;;;;;;2.76;100.00;102008.19;5040351;28;20188;-75
2023/01/25 10:47:46;;;;;;;23.73;14.88;;;;;;;2.67;100.00;102006.31;5038578;28;20758;-76
2023/01/25 10:50:43;;;;;;;21.92;14.57;;;;;;;2.63;100.00;101998.28;5037274;28;20223;-73
2023/01/25 10:53:22;;;;;;;22.70;14.45;;;;;;;2.59;100.00;101994.66;5037313;28;20694;-75
2023/01/25 10:56:18;;;;;;;22.50;15.20;;;;;;;2.69;100.00;101983.28;5036101;28;20202;-74
2023/01/25 10:58:46;;;;;;;24.55;15.45;;;;;;;2.84;100.00;101977.22;4955130;29;20215;-74
2023/01/25 11:01:24;;;;;;;21.80;14.63;;;;;;;2.85;100.00;101983.44;4957883;29;20224;-74
2023/01/25 11:03:51;;;;;;;22.40;14.48;;;;;;;2.93;100.00;101977.34;4957256;29;20267;-76
2023/01/25 11:06:29;;;;;;;24.02;14.75;;;;;;;3.01;100.00;101973.88;4956026;29;20243;-74
2023/01/25 11:08:57;;;;;;;25.20;15.30;;;;;;;3.04;100.00;101957.94;4955511;29;20270;-76
2023/01/25 11:11:26;;;;;;;24.27;15.63;;;;;;;2.90;100.00;101963.13;4956203;28;20692;-75
2023/01/25 11:13:54;;;;;;;27.92;14.32;;;;;;;2.87;100.00;101960.41;4959559;29;20293;-75
2023/01/25 11:16:33;;;;;;;25.55;16.55;;;;;;;2.83;100.00;101959.50;4962692;29;20309;-75
2023/01/25 11:19:01;;;;;;;23.70;15.15;;;;;;;2.86;100.00;101950.66;4958237;28;20655;-75
2023/01/25 11:21:30;;;;;;;25.77;15.93;;;;;;;2.84;100.00;101945.31;4957410;29;20262;-75
2023/01/25 11:24:04;;;;;;;26.08;16.50;;;;;;;3.02;100.00;101947.28;4956451;28;20618;-76
2023/01/25 11:26:31;;;;;;;27.40;15.95;;;;;;;3.05;100.00;101949.06;4955433;29;20215;-76
2023/01/25 11:29:12;;;;;;;25.45;15.73;;;;;;;3.08;100.00;101943.78;4955195;29;20209;-74